createdAt,value
2023-11-08T00:01:08.969Z,81.62
2023-11-08T00:03:37.782Z,81.89
2023-11-08T00:06:06.704Z,81.28
2023-11-08T00:08:33.611Z,81.49
2023-11-08T00:11:00.687Z,81.33
2023-11-08T00:13:27.756Z,81.72
2023-11-08T00:15:54.964Z,82.06
2023-11-08T00:18:21.975Z,81.67
2023-11-08T00:20:49.028Z,81.68
2023-11-08T00:23:15.859Z,81.50
2023-11-08T00:25:42.625Z,82.56
2023-11-08T00:28:10.641Z,82.01
2023-11-08T00:30:37.393Z,82.47
2023-11-08T00:33:04.595Z,82.62
2023-11-08T00:35:31.421Z,82.33
2023-11-08T00:37:58.322Z,83.12
2023-11-08T00:40:25.354Z,82.42
2023-11-08T00:42:52.395Z,82.51
2023-11-08T00:45:19.799Z,83.12
2023-11-08T00:47:46.789Z,83.18
2023-11-08T00:50:13.766Z,83.88
2023-11-08T00:52:40.896Z,82.83
2023-11-08T00:55:08.039Z,83.49
2023-11-08T00:57:34.927Z,83.88
2023-11-08T01:00:01.744Z,83.50
2023-11-08T01:02:31.223Z,84.59
2023-11-08T01:04:58.724Z,84.23
2023-11-08T01:07:25.428Z,85.04
2023-11-08T01:09:52.739Z,83.95
2023-11-08T01:12:19.779Z,84.25
2023-11-08T01:14:46.780Z,85.39
2023-11-08T01:17:13.567Z,85.20
2023-11-08T01:19:40.466Z,85.46
2023-11-08T01:22:09.282Z,85.23
2023-11-08T01:24:37.910Z,85.54
2023-11-08T01:27:05.276Z,85.92
2023-11-08T01:29:33.989Z,86.54
2023-11-08T01:32:00.782Z,85.52
2023-11-08T01:34:28.053Z,85.80
2023-11-08T01:36:55.063Z,86.08
2023-11-08T01:39:21.929Z,86.40
2023-11-08T01:41:52.579Z,85.68
2023-11-08T01:44:20.403Z,86.59
2023-11-08T01:46:50.513Z,84.86
2023-11-08T01:49:17.421Z,86.12
2023-11-08T01:51:44.315Z,87.15
2023-11-08T01:54:11.901Z,87.26
2023-11-08T01:56:40.802Z,87.82
2023-11-08T01:59:09.320Z,87.23
2023-11-08T02:01:36.482Z,87.20
2023-11-08T02:04:04.125Z,88.06
2023-11-08T02:06:30.957Z,87.71
2023-11-08T02:08:57.819Z,87.27
2023-11-08T02:11:24.683Z,86.01
2023-11-08T02:13:51.477Z,86.68
2023-11-08T02:16:18.530Z,86.21
2023-11-08T02:18:45.547Z,85.89
2023-11-08T02:21:15.617Z,85.07
2023-11-08T02:23:42.758Z,84.52
2023-11-08T02:26:09.768Z,85.36
2023-11-08T02:28:38.243Z,84.45
2023-11-08T02:31:05.110Z,85.16
2023-11-08T02:33:32.009Z,85.04
2023-11-08T02:36:01.960Z,85.39
2023-11-08T02:38:29.254Z,85.82
2023-11-08T02:40:56.119Z,84.08
2023-11-08T02:43:23.648Z,82.86
2023-11-08T02:45:50.464Z,83.57
2023-11-08T02:48:18.889Z,84.37
2023-11-08T02:50:46.313Z,84.53
2023-11-08T02:53:13.080Z,85.47
2023-11-08T02:55:40.127Z,85.62
2023-11-08T02:58:06.991Z,84.77
2023-11-08T03:00:33.961Z,86.21
2023-11-08T03:03:02.147Z,86.11
2023-11-08T03:05:29.312Z,87.66
2023-11-08T03:07:56.224Z,87.67
2023-11-08T03:10:23.431Z,87.29
2023-11-08T03:12:52.559Z,86.86
2023-11-08T03:15:22.962Z,86.37
2023-11-08T03:17:52.490Z,86.17
2023-11-08T03:20:20.800Z,86.11
2023-11-08T03:22:49.453Z,86.70
2023-11-08T03:25:18.547Z,86.98
2023-11-08T03:27:48.157Z,87.30
2023-11-08T03:30:17.364Z,87.58
2023-11-08T03:32:44.932Z,88.19
2023-11-08T03:35:13.356Z,88.58
2023-11-08T03:37:41.686Z,88.15
2023-11-08T03:40:13.159Z,87.94
2023-11-08T03:42:42.622Z,88.59
2023-11-08T03:45:11.929Z,88.01
2023-11-08T03:47:42.193Z,88.77
2023-11-08T03:50:10.257Z,88.25
2023-11-08T03:52:37.192Z,88.49
2023-11-08T03:55:04.782Z,89.33
2023-11-08T03:57:33.091Z,88.36
2023-11-08T03:59:59.802Z,87.76
2023-11-08T04:02:26.616Z,89.49
2023-11-08T04:04:53.550Z,89.38
2023-11-08T04:07:20.550Z,89.91
2023-11-08T04:09:49.039Z,87.75
2023-11-08T04:12:16.801Z,88.18
2023-11-08T04:14:43.765Z,86.72
2023-11-08T04:17:11.496Z,87.74
2023-11-08T04:19:38.562Z,88.97
2023-11-08T04:22:06.742Z,88.76
2023-11-08T04:24:36.697Z,88.08
2023-11-08T04:27:06.410Z,89.07
2023-11-08T04:29:33.435Z,88.44
2023-11-08T04:32:00.421Z,88.30
2023-11-08T04:34:27.412Z,88.36
2023-11-08T04:36:54.335Z,88.02
2023-11-08T04:39:23.520Z,88.06
2023-11-08T04:41:52.164Z,88.71
2023-11-08T04:44:20.428Z,88.35
2023-11-08T04:46:47.788Z,88.66
2023-11-08T04:49:15.179Z,88.51
2023-11-08T04:51:42.667Z,87.80
2023-11-08T04:54:09.535Z,87.96
2023-11-08T04:56:36.346Z,87.59
2023-11-08T04:59:03.762Z,88.86
2023-11-08T05:01:30.562Z,88.34
2023-11-08T05:03:59.689Z,88.57
2023-11-08T05:06:26.942Z,88.53
2023-11-08T05:08:54.501Z,87.83
2023-11-08T05:11:21.650Z,88.40
2023-11-08T05:13:49.860Z,88.94
2023-11-08T05:16:23.733Z,88.76
2023-11-08T05:18:52.140Z,88.96
2023-11-08T05:21:21.692Z,89.42
2023-11-08T05:23:48.641Z,89.23
2023-11-08T05:26:17.340Z,89.93
2023-11-08T05:28:44.103Z,90.03
2023-11-08T05:31:10.831Z,89.55
2023-11-08T05:33:40.982Z,90.01
2023-11-08T05:36:09.076Z,90.68
2023-11-08T05:38:36.021Z,91.36
2023-11-08T05:41:02.812Z,91.32
2023-11-08T05:43:30.340Z,91.38
2023-11-08T05:45:57.202Z,91.74
2023-11-08T05:48:24.363Z,92.07
2023-11-08T05:50:51.775Z,91.88
2023-11-08T05:53:20.698Z,91.74
2023-11-08T05:55:47.490Z,91.58
2023-11-08T05:58:15.778Z,91.94
2023-11-08T06:00:43.146Z,91.63
2023-11-08T06:03:10.850Z,91.62
2023-11-08T06:05:38.466Z,92.02
2023-11-08T06:08:05.707Z,91.86
2023-11-08T06:10:34.140Z,91.54
2023-11-08T06:13:01.463Z,91.43
2023-11-08T06:15:28.343Z,91.16
2023-11-08T06:17:55.364Z,90.84
2023-11-08T06:20:23.573Z,90.85
2023-11-08T06:22:50.539Z,90.48
2023-11-08T06:25:17.919Z,89.64
2023-11-08T06:27:44.702Z,89.55
2023-11-08T06:30:12.949Z,89.35
2023-11-08T06:32:39.900Z,89.03
2023-11-08T06:35:07.156Z,88.23
2023-11-08T06:37:34.421Z,87.73
2023-11-08T06:40:01.373Z,87.46
2023-11-08T06:42:30.535Z,87.09
2023-11-08T06:44:58.294Z,86.64
2023-11-08T06:47:25.546Z,87.07
2023-11-08T06:49:52.693Z,87.61
2023-11-08T06:52:19.451Z,87.46
2023-11-08T06:54:46.453Z,87.51
2023-11-08T06:57:13.388Z,88.04
2023-11-08T06:59:43.123Z,87.92
2023-11-08T07:02:10.480Z,87.73
2023-11-08T07:04:37.290Z,87.39
2023-11-08T07:07:05.088Z,86.92
2023-11-08T07:09:32.354Z,87.02
2023-11-08T07:11:59.275Z,86.18
2023-11-08T07:14:26.524Z,85.86
2023-11-08T07:16:53.276Z,86.02
2023-11-08T07:19:20.197Z,86.08
2023-11-08T07:21:47.296Z,85.66
2023-11-08T07:24:14.514Z,85.62
2023-11-08T07:26:41.514Z,85.49
2023-11-08T07:29:09.146Z,85.41
2023-11-08T07:31:38.776Z,85.97
2023-11-08T07:34:08.723Z,85.67
2023-11-08T07:36:35.660Z,85.56
2023-11-08T07:39:03.419Z,85.23
2023-11-08T07:41:34.591Z,85.31
2023-11-08T07:44:04.092Z,85.24
2023-11-08T07:46:32.430Z,85.07
2023-11-08T07:48:59.797Z,85.06
2023-11-08T07:51:27.156Z,84.79
2023-11-08T07:53:57.776Z,85.19
2023-11-08T07:56:27.553Z,84.54
2023-11-08T07:58:56.731Z,84.47
2023-11-08T08:01:24.012Z,84.72
2023-11-08T08:03:51.356Z,85.12
2023-11-08T08:09:06.524Z,83.09
2023-11-08T08:11:33.786Z,83.82
2023-11-08T08:14:00.732Z,82.81
2023-11-08T08:16:28.024Z,84.67
2023-11-08T08:18:55.154Z,83.01
2023-11-08T08:21:23.088Z,83.43
2023-11-08T08:23:57.965Z,83.25
2023-11-08T08:26:32.061Z,83.53
2023-11-08T08:28:59.047Z,84.17
2023-11-08T08:31:27.399Z,84.01
2023-11-08T08:33:57.946Z,84.93
2023-11-08T08:36:25.076Z,83.76
2023-11-08T08:38:51.993Z,83.45
2023-11-08T08:41:19.480Z,83.41
2023-11-08T08:43:46.259Z,83.19
2023-11-08T08:46:13.246Z,83.55
2023-11-08T08:48:40.813Z,82.95
2023-11-08T08:51:07.571Z,83.26
2023-11-08T08:53:34.263Z,82.65
2023-11-08T08:56:00.953Z,82.72
2023-11-08T08:58:27.705Z,82.87
2023-11-08T09:00:54.484Z,82.51
2023-11-08T09:03:21.969Z,82.47
2023-11-08T09:05:48.886Z,82.34
2023-11-08T09:08:15.677Z,82.38
2023-11-08T09:10:42.375Z,81.82
2023-11-08T09:13:09.138Z,81.17
2023-11-08T09:15:35.958Z,81.08
2023-11-08T09:18:02.749Z,80.63
2023-11-08T09:20:31.140Z,80.83
2023-11-08T09:22:57.928Z,80.51
2023-11-08T09:25:24.779Z,80.05
2023-11-08T09:27:51.578Z,79.61
2023-11-08T09:30:18.507Z,80.04
2023-11-08T09:32:46.606Z,80.00
2023-11-08T09:35:14.182Z,79.78
2023-11-08T09:37:40.929Z,79.70
2023-11-08T09:40:12.521Z,80.01
2023-11-08T09:42:40.422Z,78.94
2023-11-08T09:45:10.273Z,79.05
2023-11-08T09:47:39.533Z,79.74
2023-11-08T09:50:10.307Z,79.36
2023-11-08T09:52:38.843Z,79.62
2023-11-08T09:55:07.253Z,79.85
2023-11-08T09:57:37.164Z,79.05
2023-11-08T10:00:05.152Z,79.55
2023-11-08T10:02:41.303Z,79.27
2023-11-08T10:05:08.774Z,79.08
2023-11-08T10:07:39.033Z,79.57
2023-11-08T10:10:08.136Z,78.34
2023-11-08T10:12:35.426Z,77.48
2023-11-08T10:15:04.550Z,77.92
2023-11-08T10:19:30.748Z,77.17
2023-11-08T10:20:31.761Z,77.72
2023-11-08T10:23:00.651Z,77.28
2023-11-08T10:25:29.386Z,77.84
2023-11-08T10:28:05.190Z,77.87
2023-11-08T10:30:34.625Z,76.35
2023-11-08T10:33:12.289Z,76.64
2023-11-08T10:35:41.386Z,76.63
2023-11-08T10:38:11.328Z,76.62
2023-11-08T10:40:38.206Z,75.73
2023-11-08T10:43:05.504Z,76.00
2023-11-08T10:45:34.218Z,75.85
2023-11-08T10:48:03.892Z,76.41
2023-11-08T10:50:32.555Z,76.17
2023-11-08T10:52:59.708Z,76.88
2023-11-08T10:55:27.329Z,77.41
2023-11-08T10:58:03.181Z,77.57
2023-11-08T11:00:32.449Z,77.12
2023-11-08T11:03:10.400Z,77.12
2023-11-08T11:05:38.714Z,76.98
2023-11-08T11:08:07.226Z,76.56
2023-11-08T11:10:34.629Z,76.07
2023-11-08T11:13:15.024Z,76.39
2023-11-08T11:15:57.000Z,76.02
2023-11-08T11:18:46.639Z,76.24
2023-11-08T11:21:26.513Z,74.06
2023-11-08T11:23:53.624Z,75.66
2023-11-08T11:26:52.855Z,74.22
2023-11-08T11:29:20.145Z,74.14
2023-11-08T11:31:46.960Z,74.17
2023-11-08T11:34:27.645Z,74.34
2023-11-08T11:37:14.876Z,74.67
2023-11-08T11:39:50.002Z,74.73
2023-11-08T11:42:37.096Z,74.10
2023-11-08T11:49:22.841Z,73.40
2023-11-08T11:51:53.163Z,73.02
2023-11-08T11:54:20.819Z,72.50
2023-11-08T11:56:48.235Z,72.64
2023-11-08T11:59:15.056Z,73.09
2023-11-08T12:01:41.826Z,73.04
2023-11-08T12:04:09.304Z,73.94
2023-11-08T12:06:36.688Z,74.51
2023-11-08T12:09:04.553Z,74.40
2023-11-08T12:11:31.760Z,74.15
2023-11-08T12:13:58.798Z,74.18
2023-11-08T12:16:25.928Z,74.07
2023-11-08T12:18:53.274Z,73.14
2023-11-08T12:21:20.793Z,73.39
2023-11-08T12:23:48.668Z,73.07
2023-11-08T12:26:15.478Z,73.26
2023-11-08T12:28:44.898Z,73.13
2023-11-08T12:31:14.766Z,72.86
2023-11-08T12:33:41.634Z,73.63
2023-11-08T12:36:09.848Z,73.56
2023-11-08T12:38:36.933Z,73.73
2023-11-08T12:41:06.332Z,74.27
2023-11-08T12:43:58.464Z,73.61
2023-11-08T12:46:37.568Z,74.54
2023-11-08T12:49:17.641Z,74.54
2023-11-08T12:51:45.779Z,75.20
2023-11-08T12:54:15.636Z,74.71
2023-11-08T12:56:43.351Z,75.19
2023-11-08T12:59:12.195Z,75.25
2023-11-08T13:01:39.620Z,75.40
2023-11-08T13:04:06.967Z,75.73
2023-11-08T13:06:35.223Z,74.71
2023-11-08T13:09:02.937Z,74.97
2023-11-08T13:11:32.323Z,75.25
2023-11-08T13:13:59.803Z,75.37
2023-11-08T13:16:26.548Z,73.49
2023-11-08T13:18:54.596Z,74.20
2023-11-08T13:21:21.655Z,74.16
2023-11-08T13:24:02.360Z,73.90
2023-11-08T13:26:37.032Z,74.47
2023-11-08T13:29:04.845Z,74.02
2023-11-08T13:31:31.808Z,73.86
2023-11-08T13:33:59.236Z,74.62
2023-11-08T13:36:29.317Z,73.73
2023-11-08T13:38:57.620Z,74.70
2023-11-08T13:41:25.731Z,73.97
2023-11-08T13:43:52.707Z,73.30
2023-11-08T13:46:22.028Z,73.19
2023-11-08T13:48:48.827Z,73.38
2023-11-08T13:51:15.668Z,72.63
2023-11-08T13:53:42.516Z,72.12
2023-11-08T13:56:09.433Z,73.02
2023-11-08T13:58:37.539Z,72.47
2023-11-08T14:01:11.638Z,72.54
2023-11-08T14:03:39.753Z,72.54
2023-11-08T14:06:08.161Z,71.93
2023-11-08T14:08:35.258Z,71.64
2023-11-08T14:11:02.015Z,71.72
2023-11-08T14:13:29.060Z,72.49
2023-11-08T14:15:56.434Z,72.22
2023-11-08T14:18:23.377Z,72.36
2023-11-08T14:20:50.472Z,71.33
2023-11-08T14:23:17.314Z,71.82
2023-11-08T14:25:44.263Z,71.38
2023-11-08T14:28:11.212Z,71.78
2023-11-08T14:30:38.266Z,71.58
2023-11-08T14:33:05.324Z,71.75
2023-11-08T14:35:34.935Z,72.11
2023-11-08T14:38:02.627Z,72.13
2023-11-08T14:40:29.687Z,72.59
2023-11-08T14:42:56.563Z,71.51
2023-11-08T14:45:23.839Z,71.35
2023-11-08T14:47:51.540Z,71.76
2023-11-08T14:50:18.834Z,71.21
2023-11-08T14:52:47.735Z,70.81
2023-11-08T14:55:17.070Z,71.52
2023-11-08T14:57:43.928Z,71.42
2023-11-08T15:00:12.207Z,72.06
2023-11-08T15:02:38.957Z,72.15
2023-11-08T15:05:06.368Z,72.95
2023-11-08T15:09:42.317Z,71.84
2023-11-08T15:10:21.940Z,71.88
2023-11-08T15:12:49.287Z,72.25
2023-11-08T15:15:18.324Z,72.32
2023-11-08T15:17:45.977Z,72.27
2023-11-08T15:20:15.296Z,72.83
2023-11-08T15:22:42.175Z,73.30
2023-11-08T15:25:10.338Z,73.31
2023-11-08T15:27:38.008Z,72.89
2023-11-08T15:30:08.945Z,74.75
2023-11-08T15:32:35.692Z,74.15
2023-11-08T15:35:02.734Z,74.54
2023-11-08T15:37:29.719Z,74.03
2023-11-08T15:39:56.549Z,74.46
2023-11-08T15:42:23.349Z,74.49
2023-11-08T15:44:50.406Z,75.08
2023-11-08T15:47:17.738Z,75.73
2023-11-08T15:49:44.873Z,75.17
2023-11-08T15:52:15.230Z,75.05
2023-11-08T15:54:42.175Z,74.48
2023-11-08T15:57:09.069Z,74.73
2023-11-08T15:59:35.899Z,75.25
2023-11-08T16:02:04.896Z,75.99
2023-11-08T16:04:31.749Z,76.51
2023-11-08T16:06:58.946Z,76.51
2023-11-08T16:09:31.568Z,76.46
2023-11-08T16:11:59.188Z,77.00
2023-11-08T16:14:25.891Z,76.77
2023-11-08T16:16:52.667Z,77.28
2023-11-08T16:19:20.013Z,76.73
2023-11-08T16:21:50.534Z,77.53
2023-11-08T16:24:17.906Z,78.08
2023-11-08T16:26:45.086Z,78.44
2023-11-08T16:29:49.124Z,77.64
2023-11-08T16:32:33.365Z,78.09
2023-11-08T16:34:49.226Z,77.69
2023-11-08T16:37:16.943Z,78.13
2023-11-08T16:39:44.150Z,78.30
2023-11-08T16:42:12.034Z,77.65
2023-11-08T16:44:39.393Z,77.83
2023-11-08T16:47:06.611Z,78.26
2023-11-08T16:49:33.314Z,78.33
2023-11-08T16:52:00.866Z,78.84
2023-11-08T16:54:29.324Z,78.33
2023-11-08T16:56:56.064Z,78.79
2023-11-08T16:59:23.000Z,78.92
2023-11-08T17:01:50.646Z,79.01
2023-11-08T17:04:17.648Z,79.01
2023-11-08T17:06:45.438Z,79.13
2023-11-08T17:09:15.084Z,78.60
2023-11-08T17:11:42.780Z,78.24
2023-11-08T17:14:10.468Z,78.23
2023-11-08T17:16:37.698Z,78.56
2023-11-08T17:19:04.614Z,78.46
2023-11-08T17:21:33.564Z,78.01
2023-11-08T17:24:00.337Z,78.10
2023-11-08T17:26:27.200Z,77.43
2023-11-08T17:28:54.566Z,78.05
2023-11-08T17:31:21.988Z,78.08
2023-11-08T17:33:48.800Z,78.10
2023-11-08T17:36:15.691Z,78.41
2023-11-08T17:38:42.621Z,77.39
2023-11-08T17:41:10.013Z,77.74
2023-11-08T17:43:38.052Z,78.00
2023-11-08T17:46:05.250Z,78.29
2023-11-08T17:48:32.174Z,77.43
2023-11-08T17:50:58.985Z,77.87
2023-11-08T17:53:25.911Z,77.74
2023-11-08T17:55:55.066Z,78.09
2023-11-08T17:58:22.114Z,77.74
2023-11-08T18:00:48.996Z,77.02
2023-11-08T18:03:15.781Z,77.15
2023-11-08T18:05:42.680Z,76.84
2023-11-08T18:08:10.528Z,77.73
2023-11-08T18:10:38.774Z,76.88
2023-11-08T18:13:05.852Z,76.83
2023-11-08T18:15:32.536Z,75.63
2023-11-08T18:18:00.262Z,76.06
2023-11-08T18:20:27.188Z,76.27
2023-11-08T18:22:54.604Z,75.68
2023-11-08T18:25:21.459Z,74.95
2023-11-08T18:27:49.722Z,74.90
2023-11-08T18:30:16.993Z,73.81
2023-11-08T18:32:45.110Z,74.37
2023-11-08T18:35:12.087Z,74.10
2023-11-08T18:37:39.886Z,74.43
2023-11-08T18:40:08.054Z,73.76
2023-11-08T18:42:40.896Z,72.50
2023-11-08T18:45:10.600Z,73.40
2023-11-08T18:47:37.574Z,70.71
2023-11-08T18:50:07.457Z,72.06
2023-11-08T18:52:34.412Z,73.05
2023-11-08T18:55:02.257Z,73.36
2023-11-08T18:57:32.193Z,73.54
2023-11-08T19:00:01.540Z,72.89
2023-11-08T19:02:30.629Z,73.56
2023-11-08T19:04:57.711Z,73.40
2023-11-08T19:07:24.502Z,73.88
2023-11-08T19:09:51.257Z,73.83
2023-11-08T19:12:17.988Z,73.74
2023-11-08T19:14:44.833Z,73.17
2023-11-08T19:17:11.526Z,73.62
2023-11-08T19:19:38.655Z,73.79
2023-11-08T19:22:05.687Z,73.33
2023-11-08T19:24:32.598Z,74.19
2023-11-08T19:26:59.408Z,74.03
2023-11-08T19:29:26.215Z,73.40
2023-11-08T19:31:53.432Z,74.11
2023-11-08T19:34:20.243Z,74.18
2023-11-08T19:36:50.909Z,73.79
2023-11-08T19:39:19.248Z,72.49
2023-11-08T19:41:46.603Z,72.96
2023-11-08T19:44:14.097Z,72.87
2023-11-08T19:46:42.068Z,73.22
2023-11-08T19:49:10.218Z,73.97
2023-11-08T19:51:37.094Z,73.29
2023-11-08T19:54:04.309Z,72.53
2023-11-08T19:56:33.592Z,72.12
2023-11-08T19:59:01.141Z,71.48
2023-11-08T20:01:28.581Z,72.27
2023-11-08T20:03:56.238Z,72.80
2023-11-08T20:06:23.895Z,72.75
2023-11-08T20:08:51.649Z,73.71
2023-11-08T20:11:18.696Z,74.30
2023-11-08T20:13:48.348Z,73.67
2023-11-08T20:16:15.277Z,73.61
2023-11-08T20:18:42.345Z,73.25
2023-11-08T20:21:10.335Z,73.04
2023-11-08T20:23:38.402Z,73.03
2023-11-08T20:26:08.582Z,73.65
2023-11-08T20:28:37.251Z,73.38
2023-11-08T20:31:05.847Z,73.24
2023-11-08T20:33:32.862Z,73.36
2023-11-08T20:36:00.607Z,74.09
2023-11-08T20:38:27.968Z,73.26
2023-11-08T20:40:55.920Z,71.87
2023-11-08T20:43:23.332Z,72.41
2023-11-08T20:45:50.720Z,72.22
2023-11-08T20:48:17.468Z,72.83
2023-11-08T20:50:44.204Z,72.56
2023-11-08T20:53:12.057Z,71.56
2023-11-08T20:55:39.343Z,71.74
2023-11-08T20:58:07.263Z,71.81
2023-11-08T21:00:34.485Z,72.06
2023-11-08T21:03:03.277Z,72.83
2023-11-08T21:05:30.173Z,71.71
2023-11-08T21:07:57.241Z,72.70
2023-11-08T21:10:24.070Z,73.47
2023-11-08T21:12:51.174Z,71.73
2023-11-08T21:15:18.548Z,72.61
2023-11-08T21:17:47.039Z,72.02
2023-11-08T21:20:15.519Z,72.02
2023-11-08T21:22:42.907Z,71.27
2023-11-08T21:25:10.572Z,71.76
2023-11-08T21:27:37.459Z,72.72
2023-11-08T21:30:08.467Z,73.78
2023-11-08T21:32:37.819Z,73.69
2023-11-08T21:35:05.093Z,73.09
2023-11-08T21:37:32.930Z,73.33
2023-11-08T21:39:59.815Z,72.40
2023-11-08T21:42:26.625Z,73.08
2023-11-08T21:44:55.555Z,71.95
2023-11-08T21:47:22.263Z,72.70
2023-11-08T21:49:50.108Z,73.51
2023-11-08T21:52:18.031Z,73.15
2023-11-08T21:54:46.264Z,73.40
2023-11-08T21:57:14.189Z,73.49
2023-11-08T21:59:41.441Z,73.48
2023-11-08T22:02:08.564Z,73.48
2023-11-08T22:04:36.653Z,73.35
2023-11-08T22:07:04.142Z,73.26
2023-11-08T22:09:31.195Z,73.65
2023-11-08T22:11:57.925Z,74.24
2023-11-08T22:14:27.748Z,74.46
2023-11-08T22:16:54.567Z,74.42
2023-11-08T22:19:21.369Z,74.43
2023-11-08T22:21:48.353Z,74.42
2023-11-08T22:24:15.547Z,73.94
2023-11-08T22:26:42.395Z,73.65
2023-11-08T22:29:09.246Z,73.44
2023-11-08T22:31:37.937Z,73.23
2023-11-08T22:34:05.468Z,73.30
2023-11-08T22:36:32.821Z,73.89
2023-11-08T22:39:00.069Z,73.63
2023-11-08T22:41:28.456Z,73.33
2023-11-08T22:43:55.536Z,73.51
2023-11-08T22:46:22.658Z,73.75
2023-11-08T22:48:49.743Z,74.20
2023-11-08T22:51:22.842Z,73.41
2023-11-08T22:53:50.671Z,75.47
2023-11-08T22:56:19.105Z,75.32
2023-11-08T22:58:47.612Z,74.11
2023-11-08T23:01:23.962Z,74.58
2023-11-08T23:03:50.792Z,73.52
2023-11-08T23:06:21.089Z,75.46
2023-11-08T23:08:49.255Z,75.47
2023-11-08T23:11:16.030Z,74.62
2023-11-08T23:13:44.267Z,74.97
2023-11-08T23:16:12.055Z,74.56
2023-11-08T23:18:39.393Z,74.83
2023-11-08T23:21:06.846Z,75.63
2023-11-08T23:23:38.899Z,75.05
2023-11-08T23:26:07.292Z,73.82
2023-11-08T23:28:37.544Z,75.08
2023-11-08T23:31:05.994Z,74.80
2023-11-08T23:33:33.406Z,74.72
2023-11-08T23:36:01.019Z,75.39
2023-11-08T23:38:28.424Z,74.96
2023-11-08T23:40:55.362Z,75.33
2023-11-08T23:43:24.335Z,75.85
2023-11-08T23:45:51.385Z,74.69
2023-11-08T23:48:18.501Z,75.49
2023-11-08T23:50:45.292Z,75.31
2023-11-08T23:53:12.489Z,76.51
2023-11-08T23:55:39.360Z,75.12
2023-11-08T23:58:06.125Z,75.16
